createdAt,value
2018-06-01T00:01:24.809Z,99943.55
2018-06-01T00:06:35.690Z,99953.16
2018-06-01T00:11:41.200Z,99947.09
2018-06-01T00:16:46.928Z,99943.30
2018-06-01T00:21:52.412Z,99939.61
2018-06-01T00:26:58.781Z,99931.39
2018-06-01T00:32:04.154Z,99933.67
2018-06-01T00:37:10.747Z,99931.91
2018-06-01T00:42:16.170Z,99922.86
2018-06-01T00:47:31.040Z,99923.66
2018-06-01T00:52:36.459Z,99926.55
2018-06-01T00:57:47.319Z,99932.05
2018-06-01T01:02:52.769Z,99920.72
2018-06-01T01:08:02.974Z,99916.96
2018-06-01T01:13:08.410Z,99920.95
2018-06-01T01:18:16.939Z,99910.81
2018-06-01T01:23:22.329Z,99908.66
2018-06-01T01:28:27.872Z,99907.48
2018-06-01T01:33:33.260Z,99909.72
2018-06-01T01:38:38.979Z,99905.75
2018-06-01T01:43:44.398Z,99908.45
2018-06-01T01:48:50.121Z,99920.20
2018-06-01T01:53:55.506Z,99918.53
2018-06-01T01:59:01.056Z,99920.12
2018-06-01T02:04:06.484Z,99916.68
2018-06-01T02:09:15.839Z,99922.63
2018-06-01T02:14:21.302Z,99915.15
2018-06-01T02:19:30.136Z,99921.84
2018-06-01T02:24:35.368Z,99923.56
2018-06-01T02:29:40.967Z,99925.02
2018-06-01T02:34:46.293Z,99929.75
2018-06-01T02:39:52.851Z,99926.16
2018-06-01T02:44:58.258Z,99933.83
2018-06-01T02:50:04.526Z,99936.38
2018-06-01T02:55:09.890Z,99930.06
2018-06-01T03:00:16.542Z,99935.05
2018-06-01T03:05:21.966Z,99938.89
2018-06-01T03:10:27.361Z,99932.05
2018-06-01T03:15:38.622Z,99928.80
2018-06-01T03:20:44.210Z,99944.61
2018-06-01T03:25:49.729Z,99946.02
2018-06-01T03:30:54.918Z,99952.08
2018-06-01T03:36:04.889Z,99952.59
2018-06-01T03:41:10.333Z,99954.30
2018-06-01T03:46:16.725Z,99957.22
2018-06-01T03:51:22.244Z,99962.73
2018-06-01T03:56:27.861Z,99959.73
2018-06-01T04:01:33.271Z,99961.08
2018-06-01T04:06:39.255Z,99975.14
2018-06-01T04:11:44.847Z,99972.90
2018-06-01T04:16:53.577Z,99967.66
2018-06-01T04:21:59.784Z,99981.94
2018-06-01T04:27:05.358Z,99978.96
2018-06-01T04:32:10.679Z,99977.78
2018-06-01T04:37:17.275Z,99975.44
2018-06-01T04:42:22.572Z,99985.83
2018-06-01T04:47:27.861Z,99982.59
2018-06-01T04:52:33.123Z,99986.69
2018-06-01T04:57:39.518Z,99988.42
2018-06-01T05:02:44.800Z,99989.99
2018-06-01T05:07:50.262Z,99989.61
2018-06-01T05:12:55.781Z,99990.19
2018-06-01T05:18:08.264Z,99988.87
2018-06-01T05:23:13.562Z,99992.61
2018-06-01T05:28:19.030Z,99998.23
2018-06-01T05:33:24.457Z,100005.36
2018-06-01T05:38:30.095Z,100010.77
2018-06-01T05:43:35.349Z,100014.73
2018-06-01T05:48:41.699Z,100011.57
2018-06-01T05:53:47.093Z,100018.73
2018-06-01T05:58:52.305Z,100013.95
2018-06-01T06:03:57.627Z,100020.98
2018-06-01T06:09:03.076Z,100027.08
2018-06-01T06:14:08.445Z,100025.03
2018-06-01T06:19:13.978Z,100028.72
2018-06-01T06:24:19.324Z,100028.69
2018-06-01T06:29:28.306Z,100030.29
2018-06-01T06:34:33.731Z,100031.67
2018-06-01T06:39:42.105Z,100032.88
2018-06-01T06:44:47.494Z,100036.28
2018-06-01T06:49:53.004Z,100042.09
2018-06-01T06:55:04.003Z,100057.94
2018-06-01T07:00:09.358Z,100051.56
2018-06-01T07:05:17.892Z,100051.08
2018-06-01T07:10:23.411Z,100053.63
2018-06-01T07:15:32.094Z,100060.74
2018-06-01T07:20:37.349Z,100057.08
2018-06-01T07:25:42.719Z,100059.66
2018-06-01T07:30:48.108Z,100065.97
2018-06-01T07:35:53.569Z,100065.37
2018-06-01T07:40:59.210Z,100061.99
2018-06-01T07:46:05.569Z,100062.31
2018-06-01T07:51:10.991Z,100067.66
2018-06-01T07:56:16.044Z,100062.91
2018-06-01T08:01:21.368Z,100055.23
2018-06-01T08:06:32.558Z,100051.13
2018-06-01T08:11:37.905Z,100061.80
2018-06-01T08:16:43.439Z,100055.66
2018-06-01T08:21:48.817Z,100062.24
2018-06-01T08:27:00.947Z,100056.52
2018-06-01T08:32:06.249Z,100056.92
2018-06-01T08:37:11.748Z,100060.50
2018-06-01T08:42:17.245Z,100053.87
2018-06-01T08:47:23.625Z,100048.91
2018-06-01T08:52:29.029Z,100056.59
2018-06-01T08:57:37.618Z,100055.69
2018-06-01T09:02:43.063Z,100063.46
2018-06-01T09:07:48.332Z,100056.95
2018-06-01T09:12:53.748Z,100061.10
2018-06-01T09:18:02.177Z,100062.59
2018-06-01T09:23:07.625Z,100067.28
2018-06-01T09:28:14.239Z,100071.63
2018-06-01T09:33:19.780Z,100070.16
2018-06-01T09:38:25.589Z,100068.19
2018-06-01T09:43:34.154Z,100069.51
2018-06-01T09:48:39.954Z,100080.45
2018-06-01T09:53:45.397Z,100067.05
2018-06-01T09:58:53.803Z,100073.10
2018-06-01T10:03:59.552Z,100078.41
2018-06-01T10:09:04.509Z,100088.06
2018-06-01T10:14:09.664Z,100083.30
2018-06-01T10:19:15.294Z,100076.45
2018-06-01T10:24:40.380Z,100078.69
2018-06-01T10:29:46.350Z,100088.16
2018-06-01T10:34:56.137Z,100088.27
2018-06-01T10:40:01.856Z,100087.61
2018-06-01T10:45:17.212Z,100090.73
2018-06-01T10:50:22.809Z,100091.03
2018-06-01T10:55:32.072Z,100097.83
2018-06-01T11:00:37.531Z,100098.74
2018-06-01T11:05:47.812Z,100097.75
2018-06-01T11:10:53.810Z,100092.63
2018-06-01T11:16:00.356Z,100102.33
2018-06-01T11:21:06.091Z,100099.22
2018-06-01T11:26:11.693Z,100104.41
2018-06-01T11:31:17.945Z,100109.62
2018-06-01T11:36:27.374Z,100122.48
2018-06-01T11:41:32.982Z,100118.18
2018-06-01T11:46:42.173Z,100132.86
2018-06-01T11:51:47.730Z,100130.82
2018-06-01T11:56:53.059Z,100140.48
2018-06-01T12:01:58.433Z,100135.78
2018-06-01T12:07:08.734Z,100144.91
2018-06-01T12:12:13.997Z,100132.97
2018-06-01T12:17:25.113Z,100137.83
2018-06-01T12:22:30.624Z,100132.25
2018-06-01T12:27:36.695Z,100128.44
2018-06-01T12:32:41.919Z,100131.91
2018-06-01T12:37:50.582Z,100138.11
2018-06-01T12:42:55.786Z,100139.55
2018-06-01T12:48:04.419Z,100140.83
2018-06-01T12:53:09.921Z,100138.56
2018-06-01T12:58:19.036Z,100148.37
2018-06-01T13:03:24.447Z,100154.03
2018-06-01T13:08:30.743Z,100144.17
2018-06-01T13:13:36.025Z,100148.35
2018-06-01T13:18:41.576Z,100146.55
2018-06-01T13:23:46.776Z,100156.77
2018-06-01T13:28:52.481Z,100143.52
2018-06-01T13:33:58.099Z,100136.38
2018-06-01T13:39:03.271Z,100143.50
2018-06-01T13:44:08.445Z,100150.83
2018-06-01T13:49:13.735Z,100143.08
2018-06-01T13:54:19.199Z,100151.09
2018-06-01T13:59:24.427Z,100156.23
2018-06-01T14:04:30.687Z,100159.35
2018-06-01T14:09:35.871Z,100162.20
2018-06-01T14:14:42.105Z,100168.77
2018-06-01T14:19:47.556Z,100159.22
2018-06-01T14:24:56.001Z,100165.59
2018-06-01T14:30:01.248Z,100160.95
2018-06-01T14:35:06.706Z,100175.16
2018-06-01T14:40:12.206Z,100170.01
2018-06-01T14:45:21.069Z,100178.16
2018-06-01T14:50:32.254Z,100181.19
2018-06-01T14:55:41.329Z,100186.81
2018-06-01T15:00:47.442Z,100197.91
2018-06-01T15:05:56.514Z,100194.06
2018-06-01T15:11:01.858Z,100209.38
2018-06-01T15:16:11.011Z,100207.86
2018-06-01T15:21:17.177Z,100218.09
2018-06-01T15:26:23.349Z,100222.33
2018-06-01T15:31:28.726Z,100237.75
2018-06-01T15:36:35.071Z,100238.17
2018-06-01T15:41:40.429Z,100240.37
2018-06-01T15:46:51.534Z,100242.80
2018-06-01T15:51:56.942Z,100237.95
2018-06-01T15:57:06.161Z,100238.45
2018-06-01T16:02:11.590Z,100250.34
2018-06-01T16:07:21.176Z,100258.98
2018-06-01T16:12:26.305Z,100257.36
2018-06-01T16:17:31.713Z,100261.56
2018-06-01T16:22:37.291Z,100254.60
2018-06-01T16:27:42.707Z,100252.66
2018-06-01T16:32:48.177Z,100249.75
2018-06-01T16:37:57.378Z,100261.73
2018-06-01T16:43:02.763Z,100275.23
2018-06-01T16:48:09.109Z,100275.64
2018-06-01T16:53:15.356Z,100273.32
2018-06-01T16:58:20.674Z,100267.92
2018-06-01T17:03:29.215Z,100280.87
2018-06-01T17:08:34.646Z,100281.13
2018-06-01T17:13:41.124Z,100284.21
2018-06-01T17:18:46.411Z,100282.21
2018-06-01T17:23:51.770Z,100283.11
2018-06-01T17:28:57.238Z,100288.45
2018-06-01T17:34:02.618Z,100291.83
2018-06-01T17:39:07.938Z,100299.36
2018-06-01T17:44:13.603Z,100301.52
2018-06-01T17:49:19.127Z,100319.39
2018-06-01T17:54:24.283Z,100316.24
2018-06-01T17:59:29.809Z,100326.61
2018-06-01T18:04:38.643Z,100342.59
2018-06-01T18:09:44.079Z,100351.81
2018-06-01T18:14:49.712Z,100359.15
2018-06-01T18:19:55.128Z,100362.11
2018-06-01T18:25:06.826Z,100370.40
2018-06-01T18:30:12.663Z,100385.41
2018-06-01T18:35:21.759Z,100391.22
2018-06-01T18:40:27.276Z,100397.94
2018-06-01T18:45:37.942Z,100404.17
2018-06-01T18:50:43.399Z,100414.95
2018-06-01T18:55:52.278Z,100414.13
2018-06-01T19:00:57.745Z,100418.95
2018-06-01T19:06:08.092Z,100407.01
2018-06-01T19:11:14.392Z,100408.27
2018-06-01T19:16:23.015Z,100423.27
2018-06-01T19:21:35.417Z,100425.37
2018-06-01T19:26:45.276Z,100433.26
2018-06-01T19:31:52.434Z,100435.34
2018-06-01T19:37:01.564Z,100441.47
2018-06-01T19:42:07.000Z,100449.77
2018-06-01T19:47:13.530Z,100457.27
2018-06-01T19:52:18.954Z,100452.94
2018-06-01T19:57:24.462Z,100463.31
2018-06-01T20:02:29.859Z,100466.53
2018-06-01T20:07:35.485Z,100481.27
2018-06-01T20:12:41.001Z,100482.61
2018-06-01T20:17:45.941Z,100485.65
2018-06-01T20:22:51.477Z,100507.88
2018-06-01T20:27:56.890Z,100511.70
2018-06-01T20:33:02.403Z,100527.25
2018-06-01T20:38:07.769Z,100528.70
2018-06-01T20:43:13.226Z,100528.20
2018-06-01T20:48:18.461Z,100531.38
2018-06-01T20:53:23.947Z,100531.11
2018-06-01T20:58:29.420Z,100526.63
2018-06-01T21:03:34.839Z,100531.52
2018-06-01T21:08:40.069Z,100535.48
2018-06-01T21:13:48.711Z,100530.62
2018-06-01T21:18:54.139Z,100521.98
2018-06-01T21:23:59.532Z,100528.09
2018-06-01T21:29:04.628Z,100531.13
2018-06-01T21:34:10.117Z,100526.56
2018-06-01T21:39:15.522Z,100522.64
2018-06-01T21:44:21.948Z,100518.48
2018-06-01T21:49:27.407Z,100524.71
2018-06-01T21:54:36.014Z,100525.49
2018-06-01T21:59:41.355Z,100528.72
2018-06-01T22:04:50.758Z,100533.13
2018-06-01T22:09:56.149Z,100537.61
2018-06-01T22:15:02.615Z,100547.14
2018-06-01T22:20:07.977Z,100546.91
2018-06-01T22:25:16.753Z,100552.34
2018-06-01T22:30:22.056Z,100553.45
2018-06-01T22:35:37.184Z,100554.22
2018-06-01T22:40:42.545Z,100545.56
2018-06-01T22:45:50.951Z,100546.89
2018-06-01T22:50:56.271Z,100537.42
2018-06-01T22:56:02.502Z,100527.38
2018-06-01T23:01:07.801Z,100522.25
2018-06-01T23:06:16.801Z,100521.15
2018-06-01T23:11:22.248Z,100514.25
2018-06-01T23:16:31.542Z,100517.55
2018-06-01T23:21:36.970Z,100506.58
2018-06-01T23:26:43.374Z,100498.37
2018-06-01T23:31:48.674Z,100499.64
2018-06-01T23:36:57.106Z,100497.80
2018-06-01T23:42:02.330Z,100499.97
2018-06-01T23:47:08.942Z,100500.84
2018-06-01T23:52:14.373Z,100487.68
2018-06-01T23:57:19.713Z,100493.78
